Time;durP1;ratioP1;P1;durP2;ratioP2;P2;SDS_P1;SDS_P2;PMS_P1;PMS_P2;Temp;Humidity;BMP_temperature;BMP_pressure;BME280_temperature;BME280_humidity;BME280_pressure;Samples;Min_cycle;Max_cycle;Signal;HPM_P1;HPM_P2
2021/04/07 00:01:08;;;;;;;0.05;0.05;;;;;;;;;;5069026;27;20027;-60
2021/04/07 00:03:36;;;;;;;0.38;0.10;;;;;;;;;;5092063;27;20040;-60
2021/04/07 00:06:04;;;;;;;2.20;0.20;;;;;;;;;;5074397;27;20081;-60
2021/04/07 00:08:31;;;;;;;0.00;0.00;;;;;;;;;;5085172;27;20043;-59
2021/04/07 00:10:58;;;;;;;0.43;0.35;;;;;;;;;;5088036;27;20035;-58
2021/04/07 00:13:26;;;;;;;2.47;0.30;;;;;;;;;;5057015;28;20915;-61
2021/04/07 00:15:52;;;;;;;11.57;0.35;;;;;;;;;;5078211;27;20635;-59
2021/04/07 00:18:20;;;;;;;2.30;0.28;;;;;;;;;;5091178;27;21942;-59
2021/04/07 00:20:47;;;;;;;0.43;0.40;;;;;;;;;;5070180;27;20148;-60
2021/04/07 00:23:20;;;;;;;0.40;0.30;;;;;;;;;;5070421;27;20588;-60
2021/04/07 00:25:48;;;;;;;0.30;0.20;;;;;;;;;;5069789;27;20039;-60
2021/04/07 00:28:21;;;;;;;0.88;0.13;;;;;;;;;;5069723;28;20032;-59
2021/04/07 00:30:47;;;;;;;3.83;0.20;;;;;;;;;;5054636;28;20659;-58
2021/04/07 00:33:16;;;;;;;0.55;0.20;;;;;;;;;;5070440;27;20036;-58
2021/04/07 00:35:42;;;;;;;0.25;0.10;;;;;;;;;;5070652;27;20028;-59
2021/04/07 00:38:07;;;;;;;0.20;0.10;;;;;;;;;;5068544;27;20046;-59
2021/04/07 00:40:33;;;;;;;1.30;0.55;;;;;;;;;;5069101;27;20118;-60
2021/04/07 00:43:00;;;;;;;2.67;0.20;;;;;;;;;;5068092;27;20065;-59
2021/04/07 00:45:25;;;;;;;0.25;0.20;;;;;;;;;;5069922;27;20667;-58
2021/04/07 00:47:52;;;;;;;0.20;0.20;;;;;;;;;;5067977;28;20040;-60
2021/04/07 00:50:18;;;;;;;0.08;0.05;;;;;;;;;;5057045;27;20052;-58
2021/04/07 00:52:44;;;;;;;0.65;0.52;;;;;;;;;;5069636;28;20035;-59
2021/04/07 00:55:11;;;;;;;0.95;0.32;;;;;;;;;;5066761;28;20032;-58
2021/04/07 00:57:36;;;;;;;0.10;0.10;;;;;;;;;;5084897;27;20024;-59
2021/04/07 01:00:03;;;;;;;0.00;0.00;;;;;;;;;;5086122;27;20050;-58
2021/04/07 01:02:29;;;;;;;3.95;0.45;;;;;;;;;;5052375;28;22647;-58
2021/04/07 01:05:00;;;;;;;0.95;0.35;;;;;;;;;;5068870;28;20032;-59
2021/04/07 01:07:25;;;;;;;0.08;0.00;;;;;;;;;;5069883;27;20034;-57
2021/04/07 01:09:51;;;;;;;0.40;0.22;;;;;;;;;;5068355;27;20072;-58
2021/04/07 01:12:19;;;;;;;0.15;0.10;;;;;;;;;;5066529;27;20112;-58
2021/04/07 01:14:45;;;;;;;3.60;0.45;;;;;;;;;;5065364;27;21082;-58
2021/04/07 01:17:11;;;;;;;1.13;0.38;;;;;;;;;;5069656;27;20175;-58
2021/04/07 01:19:37;;;;;;;0.10;0.10;;;;;;;;;;5087450;27;20042;-58
2021/04/07 01:22:03;;;;;;;0.68;0.38;;;;;;;;;;5086279;27;20027;-58
2021/04/07 01:24:32;;;;;;;0.45;0.17;;;;;;;;;;5070678;28;20031;-59
2021/04/07 01:26:58;;;;;;;0.15;0.10;;;;;;;;;;5052454;27;20889;-59
2021/04/07 01:29:26;;;;;;;0.55;0.50;;;;;;;;;;5069481;27;20150;-59
2021/04/07 01:31:52;;;;;;;0.93;0.40;;;;;;;;;;5067098;27;20054;-58
2021/04/07 01:34:20;;;;;;;0.35;0.30;;;;;;;;;;5084267;27;20035;-57
2021/04/07 01:36:48;;;;;;;0.00;0.00;;;;;;;;;;5084635;27;20032;-58
2021/04/07 01:39:13;;;;;;;1.70;0.20;;;;;;;;;;5067098;27;20036;-58
2021/04/07 01:41:42;;;;;;;6.13;0.45;;;;;;;;;;5075583;27;20035;-59
2021/04/07 01:44:07;;;;;;;0.13;0.13;;;;;;;;;;5085933;27;20042;-58
2021/04/07 01:46:34;;;;;;;1.27;0.82;;;;;;;;;;5085849;27;20024;-59
2021/04/07 01:48:59;;;;;;;0.50;0.22;;;;;;;;;;5083194;27;20043;-59
2021/04/07 01:51:28;;;;;;;0.43;0.43;;;;;;;;;;5049598;28;20608;-59
2021/04/07 01:54:02;;;;;;;0.60;0.57;;;;;;;;;;5063992;28;20039;-60
2021/04/07 01:56:28;;;;;;;6.45;0.73;;;;;;;;;;5065951;28;20039;-57
2021/04/07 01:58:57;;;;;;;0.55;0.10;;;;;;;;;;5066040;28;20039;-60
2021/04/07 02:01:25;;;;;;;5.65;0.40;;;;;;;;;;5065072;28;20126;-59
2021/04/07 02:03:54;;;;;;;2.00;0.75;;;;;;;;;;5064235;28;20111;-59
2021/04/07 02:06:22;;;;;;;0.38;0.38;;;;;;;;;;5066837;28;20693;-59
2021/04/07 02:08:48;;;;;;;1.20;0.25;;;;;;;;;;5065060;28;20028;-59
2021/04/07 02:11:14;;;;;;;6.05;0.22;;;;;;;;;;5065210;28;20166;-58
2021/04/07 02:13:40;;;;;;;0.60;0.20;;;;;;;;;;5063241;28;20658;-60
2021/04/07 02:16:12;;;;;;;1.33;0.13;;;;;;;;;;5065152;28;20042;-61
2021/04/07 02:18:40;;;;;;;0.08;0.08;;;;;;;;;;5049629;28;20070;-60
2021/04/07 02:21:06;;;;;;;0.00;0.00;;;;;;;;;;5049398;28;20032;-61
2021/04/07 02:23:32;;;;;;;0.10;0.10;;;;;;;;;;5064613;28;20609;-60
2021/04/07 02:25:58;;;;;;;0.00;0.00;;;;;;;;;;5064909;28;20035;-59
2021/04/07 02:28:27;;;;;;;0.00;0.00;;;;;;;;;;5064613;28;20419;-60
2021/04/07 02:30:55;;;;;;;0.35;0.15;;;;;;;;;;5064027;28;20024;-62
2021/04/07 02:33:20;;;;;;;0.03;0.03;;;;;;;;;;5038335;28;20483;-62
2021/04/07 02:35:46;;;;;;;0.17;0.13;;;;;;;;;;5063586;28;20036;-62
2021/04/07 02:38:11;;;;;;;0.47;0.20;;;;;;;;;;5061560;28;20650;-62
2021/04/07 02:40:39;;;;;;;0.10;0.10;;;;;;;;;;5038863;28;20115;-63
2021/04/07 02:43:04;;;;;;;0.03;0.00;;;;;;;;;;5047095;28;20036;-62
2021/04/07 02:45:30;;;;;;;0.00;0.00;;;;;;;;;;5064149;28;20032;-62
2021/04/07 02:48:00;;;;;;;0.35;0.10;;;;;;;;;;5064715;28;20036;-63
2021/04/07 02:50:26;;;;;;;0.40;0.28;;;;;;;;;;5068961;28;20403;-63
2021/04/07 02:52:51;;;;;;;0.00;0.00;;;;;;;;;;5084182;28;20043;-63
2021/04/07 02:55:17;;;;;;;0.35;0.20;;;;;;;;;;5066116;28;20189;-63
2021/04/07 02:57:42;;;;;;;0.00;0.00;;;;;;;;;;5069109;28;21543;-63
2021/04/07 03:00:09;;;;;;;0.30;0.30;;;;;;;;;;5065143;28;20053;-64
2021/04/07 03:02:34;;;;;;;0.17;0.10;;;;;;;;;;5062825;28;21317;-64
2021/04/07 03:05:02;;;;;;;4.22;0.80;;;;;;;;;;5068065;28;20035;-64
2021/04/07 03:07:28;;;;;;;0.55;0.13;;;;;;;;;;5067182;28;20031;-61
2021/04/07 03:09:56;;;;;;;0.00;0.00;;;;;;;;;;5082876;28;20024;-63
2021/04/07 03:12:21;;;;;;;0.88;0.30;;;;;;;;;;5067874;28;20019;-65
2021/04/07 03:14:51;;;;;;;0.22;0.20;;;;;;;;;;5048674;28;20039;-63
2021/04/07 03:17:17;;;;;;;0.22;0.20;;;;;;;;;;5084490;28;20118;-63
2021/04/07 03:19:45;;;;;;;0.00;0.00;;;;;;;;;;5063925;28;20139;-63
2021/04/07 03:22:11;;;;;;;0.00;0.00;;;;;;;;;;5063399;28;20015;-64
2021/04/07 03:24:36;;;;;;;0.00;0.00;;;;;;;;;;5048612;28;20031;-64
2021/04/07 03:27:02;;;;;;;0.28;0.15;;;;;;;;;;5066171;28;20055;-63
2021/04/07 03:29:27;;;;;;;0.05;0.05;;;;;;;;;;5064790;28;22141;-64
2021/04/07 03:31:53;;;;;;;5.07;0.28;;;;;;;;;;5068768;28;20126;-64
2021/04/07 03:34:23;;;;;;;0.70;0.30;;;;;;;;;;5082166;28;20042;-64
2021/04/07 03:36:53;;;;;;;0.75;0.22;;;;;;;;;;5066698;28;20111;-63
2021/04/07 03:39:22;;;;;;;2.60;0.32;;;;;;;;;;5083976;27;20031;-70
2021/04/07 03:41:47;;;;;;;0.00;0.00;;;;;;;;;;5060842;27;20054;-65
2021/04/07 03:44:18;;;;;;;0.10;0.10;;;;;;;;;;5087518;27;20088;-64
2021/04/07 03:46:44;;;;;;;0.70;0.08;;;;;;;;;;5071790;27;20019;-65
2021/04/07 03:49:11;;;;;;;0.00;0.00;;;;;;;;;;5072301;28;20027;-66
2021/04/07 03:51:36;;;;;;;0.00;0.00;;;;;;;;;;5073239;27;20050;-67
2021/04/07 03:54:04;;;;;;;0.30;0.25;;;;;;;;;;5087730;27;20043;-68
2021/04/07 03:56:32;;;;;;;0.00;0.00;;;;;;;;;;5070307;27;20039;-69
2021/04/07 03:58:58;;;;;;;0.35;0.35;;;;;;;;;;5042613;27;20039;-70
2021/04/07 04:01:27;;;;;;;0.10;0.10;;;;;;;;;;5087291;27;20039;-68
2021/04/07 04:03:53;;;;;;;0.10;0.00;;;;;;;;;;5054842;27;20171;-70
2021/04/07 04:06:20;;;;;;;0.73;0.10;;;;;;;;;;5070765;27;20030;-68
2021/04/07 04:08:46;;;;;;;0.00;0.00;;;;;;;;;;5053362;27;20107;-69
2021/04/07 04:11:12;;;;;;;0.00;0.00;;;;;;;;;;5088569;27;20035;-70
2021/04/07 04:13:40;;;;;;;0.00;0.00;;;;;;;;;;5037148;27;20051;-68
2021/04/07 04:16:08;;;;;;;0.20;0.17;;;;;;;;;;5070267;27;20035;-69
2021/04/07 04:18:38;;;;;;;0.10;0.10;;;;;;;;;;5086849;27;20027;-68
2021/04/07 04:21:04;;;;;;;0.00;0.00;;;;;;;;;;5072263;27;20039;-71
2021/04/07 04:23:30;;;;;;;0.00;0.00;;;;;;;;;;5087876;27;20411;-73
2021/04/07 04:25:56;;;;;;;0.00;0.00;;;;;;;;;;5068570;27;20027;-72
2021/04/07 04:28:21;;;;;;;0.25;0.10;;;;;;;;;;5047410;27;20035;-75
2021/04/07 04:30:47;;;;;;;0.00;0.00;;;;;;;;;;5068676;27;20032;-72
2021/04/07 04:33:12;;;;;;;0.00;0.00;;;;;;;;;;5038417;27;20065;-74
2021/04/07 04:35:37;;;;;;;0.55;0.08;;;;;;;;;;5070556;27;20537;-72
2021/04/07 04:38:03;;;;;;;0.00;0.00;;;;;;;;;;5063890;27;20125;-75
2021/04/07 04:40:29;;;;;;;0.10;0.00;;;;;;;;;;5061313;27;20040;-74
2021/04/07 04:42:57;;;;;;;0.30;0.10;;;;;;;;;;5059007;27;20070;-71
2021/04/07 04:45:25;;;;;;;0.00;0.00;;;;;;;;;;5059336;28;22044;-76
2021/04/07 04:47:51;;;;;;;0.00;0.00;;;;;;;;;;5101508;27;20425;-74
2021/04/07 04:50:17;;;;;;;0.05;0.05;;;;;;;;;;5101073;27;20055;-74
2021/04/07 04:52:42;;;;;;;0.50;0.28;;;;;;;;;;5054443;27;20035;-74
2021/04/07 04:55:08;;;;;;;0.00;0.00;;;;;;;;;;5064249;27;20052;-75
2021/04/07 04:57:37;;;;;;;0.00;0.00;;;;;;;;;;5088227;27;22096;-74
2021/04/07 05:00:05;;;;;;;0.10;0.10;;;;;;;;;;5085713;27;20034;-75
2021/04/07 05:02:33;;;;;;;0.00;0.00;;;;;;;;;;5075596;27;20621;-77
2021/04/07 05:04:58;;;;;;;0.00;0.00;;;;;;;;;;5060866;27;20577;-76
2021/04/07 05:07:24;;;;;;;0.00;0.00;;;;;;;;;;5077242;27;20035;-76
2021/04/07 05:09:49;;;;;;;0.00;0.00;;;;;;;;;;5080707;27;20027;-74
2021/04/07 05:12:14;;;;;;;0.00;0.00;;;;;;;;;;5069980;27;20085;-75
2021/04/07 05:14:40;;;;;;;0.20;0.10;;;;;;;;;;5050196;27;20028;-73
2021/04/07 05:17:09;;;;;;;0.00;0.00;;;;;;;;;;5070744;28;20110;-73
2021/04/07 05:19:34;;;;;;;0.20;0.10;;;;;;;;;;5071362;28;20047;-75
2021/04/07 05:21:59;;;;;;;0.00;0.00;;;;;;;;;;5082478;27;20879;-75
2021/04/07 05:24:27;;;;;;;0.20;0.17;;;;;;;;;;5078474;27;20031;-73
2021/04/07 05:26:53;;;;;;;0.00;0.00;;;;;;;;;;5061515;27;20032;-72
2021/04/07 05:29:18;;;;;;;0.00;0.00;;;;;;;;;;5061166;27;20042;-72
2021/04/07 05:31:45;;;;;;;0.00;0.00;;;;;;;;;;5084376;27;20045;-72
2021/04/07 05:34:12;;;;;;;0.65;0.47;;;;;;;;;;5025706;27;20632;-70
2021/04/07 05:36:41;;;;;;;0.30;0.10;;;;;;;;;;5038787;28;20047;-71
2021/04/07 05:39:12;;;;;;;0.05;0.05;;;;;;;;;;5076619;27;20039;-69
2021/04/07 05:41:45;;;;;;;0.00;0.00;;;;;;;;;;5043572;28;20131;-69
2021/04/07 05:44:10;;;;;;;0.10;0.10;;;;;;;;;;5032413;27;20160;-69
2021/04/07 05:46:38;;;;;;;0.10;0.10;;;;;;;;;;5058129;28;20113;-69
2021/04/07 05:49:03;;;;;;;0.10;0.10;;;;;;;;;;5060822;27;20047;-69
2021/04/07 05:51:31;;;;;;;0.13;0.08;;;;;;;;;;5077654;27;20085;-69
2021/04/07 05:53:57;;;;;;;1.17;0.10;;;;;;;;;;5065188;28;20116;-71
2021/04/07 05:56:25;;;;;;;0.38;0.13;;;;;;;;;;5050979;27;20038;-71
2021/04/07 05:58:51;;;;;;;0.10;0.10;;;;;;;;;;5076191;27;20099;-69
2021/04/07 06:01:21;;;;;;;0.50;0.20;;;;;;;;;;5058608;28;20475;-70
2021/04/07 06:03:49;;;;;;;0.30;0.30;;;;;;;;;;5049900;28;20032;-68
2021/04/07 06:06:15;;;;;;;2.40;0.50;;;;;;;;;;5060592;28;20028;-69
2021/04/07 06:08:41;;;;;;;2.50;0.15;;;;;;;;;;5073542;27;20038;-69
2021/04/07 06:11:10;;;;;;;1.95;0.20;;;;;;;;;;5056752;28;20109;-71
2021/04/07 06:13:35;;;;;;;0.43;0.25;;;;;;;;;;5071216;27;20620;-69
2021/04/07 06:16:04;;;;;;;0.20;0.15;;;;;;;;;;5079949;27;20108;-70
2021/04/07 06:18:32;;;;;;;2.47;0.25;;;;;;;;;;5061127;28;20059;-68
2021/04/07 06:21:00;;;;;;;1.17;1.00;;;;;;;;;;5079697;27;20138;-66
2021/04/07 06:23:26;;;;;;;0.45;0.30;;;;;;;;;;5067563;28;20747;-64
2021/04/07 06:25:52;;;;;;;0.20;0.10;;;;;;;;;;5074457;27;20020;-65
2021/04/07 06:28:18;;;;;;;0.50;0.10;;;;;;;;;;5056931;27;20024;-67
2021/04/07 06:30:49;;;;;;;0.10;0.10;;;;;;;;;;5052884;28;20035;-64
2021/04/07 06:33:25;;;;;;;0.80;0.50;;;;;;;;;;5061485;28;20070;-65
2021/04/07 06:36:01;;;;;;;0.17;0.10;;;;;;;;;;5063521;28;20059;-63
2021/04/07 06:38:31;;;;;;;1.52;0.20;;;;;;;;;;5062961;28;20130;-65
2021/04/07 06:41:00;;;;;;;1.08;0.20;;;;;;;;;;5078598;28;20023;-63
2021/04/07 06:43:29;;;;;;;0.65;0.30;;;;;;;;;;5062035;28;20039;-62
2021/04/07 06:45:55;;;;;;;0.63;0.35;;;;;;;;;;5085306;28;21046;-61
2021/04/07 06:48:21;;;;;;;1.27;0.52;;;;;;;;;;5048837;28;20068;-61
2021/04/07 06:50:50;;;;;;;0.60;0.60;;;;;;;;;;5050635;28;20059;-61
2021/04/07 06:53:22;;;;;;;1.98;0.40;;;;;;;;;;5084289;28;20117;-59
2021/04/07 06:55:47;;;;;;;3.95;0.80;;;;;;;;;;5082589;28;20051;-60
2021/04/07 06:58:13;;;;;;;2.05;0.30;;;;;;;;;;5083375;27;20031;-60
2021/04/07 07:00:40;;;;;;;0.38;0.30;;;;;;;;;;5066811;28;20031;-59
2021/04/07 07:03:14;;;;;;;2.05;0.50;;;;;;;;;;5065811;28;20043;-59
2021/04/07 07:05:42;;;;;;;1.27;0.50;;;;;;;;;;5068238;28;20023;-60
2021/04/07 07:08:10;;;;;;;1.58;0.60;;;;;;;;;;5083046;28;20036;-60
2021/04/07 07:10:53;;;;;;;3.00;0.82;;;;;;;;;;5067593;28;20053;-61
2021/04/07 07:13:25;;;;;;;1.45;0.15;;;;;;;;;;5082197;28;20156;-62
2021/04/07 07:15:50;;;;;;;2.90;0.60;;;;;;;;;;5054760;27;20035;-62
2021/04/07 07:18:27;;;;;;;1.38;0.55;;;;;;;;;;5063082;27;20032;-64
2021/04/07 07:20:55;;;;;;;0.73;0.40;;;;;;;;;;5086253;27;20035;-65
2021/04/07 07:23:27;;;;;;;0.63;0.30;;;;;;;;;;5066588;27;20096;-63
2021/04/07 07:26:00;;;;;;;2.30;0.40;;;;;;;;;;5053748;27;20975;-65
2021/04/07 07:28:26;;;;;;;1.15;0.32;;;;;;;;;;5087563;27;20028;-65
2021/04/07 07:30:54;;;;;;;0.55;0.30;;;;;;;;;;5069296;27;20063;-65
2021/04/07 07:33:22;;;;;;;1.48;0.35;;;;;;;;;;5086527;27;20031;-65
2021/04/07 07:35:53;;;;;;;5.28;0.98;;;;;;;;;;5068549;27;20035;-63
2021/04/07 07:38:24;;;;;;;2.83;0.60;;;;;;;;;;5066657;27;20090;-63
2021/04/07 07:41:05;;;;;;;5.75;0.60;;;;;;;;;;5068761;27;20055;-62
2021/04/07 07:43:33;;;;;;;3.00;0.55;;;;;;;;;;5063669;27;20048;-63
2021/04/07 07:46:08;;;;;;;2.28;0.38;;;;;;;;;;5064834;27;20087;-64
2021/04/07 07:48:34;;;;;;;5.25;1.00;;;;;;;;;;5086204;27;20222;-68
2021/04/07 07:51:11;;;;;;;1.40;0.60;;;;;;;;;;5066472;28;22079;-62
2021/04/07 07:53:39;;;;;;;4.75;0.43;;;;;;;;;;5066822;28;20028;-63
2021/04/07 07:56:04;;;;;;;5.40;0.57;;;;;;;;;;5050132;28;20067;-63
2021/04/07 07:58:30;;;;;;;2.33;0.40;;;;;;;;;;5065332;28;20094;-63
2021/04/07 08:01:04;;;;;;;3.45;0.52;;;;;;;;;;5050780;28;20097;-63
2021/04/07 08:03:37;;;;;;;5.13;0.85;;;;;;;;;;5064293;28;20577;-65
2021/04/07 08:06:05;;;;;;;6.00;1.05;;;;;;;;;;5066538;28;20024;-62
2021/04/07 08:08:33;;;;;;;6.05;0.93;;;;;;;;;;5047448;28;20035;-62
2021/04/07 08:11:01;;;;;;;5.13;1.13;;;;;;;;;;5064648;28;20163;-62
2021/04/07 08:13:36;;;;;;;6.97;1.33;;;;;;;;;;5064712;28;20024;-63
2021/04/07 08:16:07;;;;;;;9.50;1.25;;;;;;;;;;5068353;28;20024;-63
2021/04/07 08:18:35;;;;;;;4.55;1.30;;;;;;;;;;5066361;28;20032;-63
2021/04/07 08:21:04;;;;;;;7.10;1.27;;;;;;;;;;5065600;28;20076;-64
2021/04/07 08:23:33;;;;;;;5.35;1.10;;;;;;;;;;5050012;28;20033;-62
2021/04/07 08:26:01;;;;;;;5.20;1.33;;;;;;;;;;5064489;28;20031;-61
2021/04/07 08:28:31;;;;;;;8.48;1.27;;;;;;;;;;5063243;28;20965;-61
2021/04/07 08:31:00;;;;;;;6.15;1.23;;;;;;;;;;5066215;28;20111;-61
2021/04/07 08:33:28;;;;;;;8.10;1.80;;;;;;;;;;5056098;28;20024;-62
2021/04/07 08:35:54;;;;;;;10.30;1.20;;;;;;;;;;5066354;28;20021;-62
2021/04/07 08:38:30;;;;;;;10.05;1.55;;;;;;;;;;5064106;28;20042;-61
2021/04/07 08:41:16;;;;;;;9.45;1.60;;;;;;;;;;5055693;28;20066;-61
2021/04/07 08:43:42;;;;;;;7.45;1.55;;;;;;;;;;5056637;28;20040;-64
2021/04/07 08:46:12;;;;;;;8.57;1.92;;;;;;;;;;5066649;28;20038;-60
2021/04/07 08:48:38;;;;;;;8.15;1.52;;;;;;;;;;5059562;28;20035;-62
2021/04/07 08:51:05;;;;;;;5.28;1.10;;;;;;;;;;5076405;27;21020;-60
2021/04/07 08:53:31;;;;;;;4.85;0.82;;;;;;;;;;5077044;27;20146;-60
2021/04/07 08:56:05;;;;;;;10.65;1.60;;;;;;;;;;5086362;27;20035;-60
2021/04/07 08:58:31;;;;;;;5.88;1.45;;;;;;;;;;5085871;27;20058;-60
2021/04/07 09:00:57;;;;;;;13.68;1.75;;;;;;;;;;5063418;27;20495;-60
2021/04/07 09:03:27;;;;;;;16.77;2.38;;;;;;;;;;5054983;27;21132;-62
2021/04/07 09:05:55;;;;;;;7.75;1.33;;;;;;;;;;5087893;27;20119;-61
2021/04/07 09:08:28;;;;;;;10.02;1.95;;;;;;;;;;5069569;27;20032;-59
2021/04/07 09:10:58;;;;;;;10.13;1.70;;;;;;;;;;5086195;27;20489;-61
2021/04/07 09:13:25;;;;;;;18.67;2.30;;;;;;;;;;5085453;27;22151;-59
2021/04/07 09:16:00;;;;;;;17.25;2.17;;;;;;;;;;5085390;27;20028;-63
2021/04/07 09:18:26;;;;;;;;;;;;;;;;;;5084667;27;20036;-65
2021/04/07 09:20:53;;;;;;;15.40;2.60;;;;;;;;;;5087856;27;19973;-60
2021/04/07 09:23:28;;;;;;;23.48;3.05;;;;;;;;;;5069611;27;20031;-60
2021/04/07 09:26:06;;;;;;;19.92;2.95;;;;;;;;;;5051514;28;20039;-60
2021/04/07 09:28:36;;;;;;;24.40;3.42;;;;;;;;;;5085078;27;20027;-59
2021/04/07 09:31:13;;;;;;;18.30;2.45;;;;;;;;;;5078318;27;20023;-60
2021/04/07 09:33:52;;;;;;;14.90;2.35;;;;;;;;;;5086734;27;20035;-60
2021/04/07 09:36:23;;;;;;;18.50;2.30;;;;;;;;;;5087769;27;20102;-60
2021/04/07 09:38:52;;;;;;;13.80;2.25;;;;;;;;;;5050881;27;20031;-60
2021/04/07 09:41:22;;;;;;;14.48;2.47;;;;;;;;;;5084268;27;20028;-60
2021/04/07 09:43:51;;;;;;;18.77;2.20;;;;;;;;;;5046503;28;20029;-59
2021/04/07 09:46:21;;;;;;;14.10;1.92;;;;;;;;;;5067973;28;20126;-60
2021/04/07 09:48:51;;;;;;;19.27;2.58;;;;;;;;;;5063701;28;20131;-59
2021/04/07 09:51:22;;;;;;;23.13;2.47;;;;;;;;;;5068199;28;20779;-61
2021/04/07 09:53:47;;;;;;;13.63;2.13;;;;;;;;;;5065209;27;20395;-61
2021/04/07 09:56:13;;;;;;;17.85;2.35;;;;;;;;;;5084461;27;20035;-60
2021/04/07 09:58:42;;;;;;;10.63;2.05;;;;;;;;;;5065088;27;20039;-60
2021/04/07 10:01:09;;;;;;;15.15;2.00;;;;;;;;;;5059795;27;20114;-62
2021/04/07 10:03:39;;;;;;;14.60;2.40;;;;;;;;;;5065879;28;20114;-61
2021/04/07 10:06:16;;;;;;;19.33;2.65;;;;;;;;;;5083157;27;20038;-61
2021/04/07 10:08:41;;;;;;;12.45;2.35;;;;;;;;;;5064727;27;20105;-63
2021/04/07 10:11:08;;;;;;;13.88;1.77;;;;;;;;;;5066545;28;20046;-60
2021/04/07 10:13:38;;;;;;;17.50;2.53;;;;;;;;;;5066897;28;20027;-60
2021/04/07 10:16:16;;;;;;;14.40;2.80;;;;;;;;;;5063626;27;20417;-60
2021/04/07 10:18:45;;;;;;;12.18;2.00;;;;;;;;;;5084001;27;21397;-61
2021/04/07 10:21:12;;;;;;;13.48;1.35;;;;;;;;;;5064991;27;20048;-61
2021/04/07 10:23:41;;;;;;;11.05;1.63;;;;;;;;;;5083506;27;20039;-61
2021/04/07 10:26:07;;;;;;;9.73;1.60;;;;;;;;;;5065303;28;20035;-63
2021/04/07 10:28:35;;;;;;;15.68;1.88;;;;;;;;;;5082430;27;20081;-61
2021/04/07 10:31:00;;;;;;;15.90;2.45;;;;;;;;;;5065683;27;20028;-62
2021/04/07 10:33:28;;;;;;;17.30;2.22;;;;;;;;;;5082012;27;20369;-61
2021/04/07 10:36:03;;;;;;;12.60;1.80;;;;;;;;;;5069997;28;20607;-61
2021/04/07 10:38:33;;;;;;;8.55;1.58;;;;;;;;;;5068112;28;20051;-60
2021/04/07 10:41:02;;;;;;;12.90;1.40;;;;;;;;;;5065915;28;20121;-61
2021/04/07 10:43:30;;;;;;;15.80;1.60;;;;;;;;;;5056262;28;20098;-60
2021/04/07 10:45:57;;;;;;;14.10;1.75;;;;;;;;;;5063469;28;20090;-59
2021/04/07 10:48:23;;;;;;;15.57;1.92;;;;;;;;;;5083012;28;20023;-63
2021/04/07 10:50:49;;;;;;;8.02;1.27;;;;;;;;;;5085134;27;20047;-61
2021/04/07 10:53:15;;;;;;;16.13;1.83;;;;;;;;;;5086543;27;20035;-61
2021/04/07 10:55:40;;;;;;;12.45;1.40;;;;;;;;;;5087661;27;20938;-61
2021/04/07 10:58:05;;;;;;;11.13;1.98;;;;;;;;;;5068081;27;20041;-61
2021/04/07 11:00:49;;;;;;;11.77;1.65;;;;;;;;;;5037765;28;20064;-61
2021/04/07 11:03:14;;;;;;;11.43;1.92;;;;;;;;;;5067753;27;20140;-59
2021/04/07 11:05:41;;;;;;;16.75;2.38;;;;;;;;;;5087179;27;20128;-61
2021/04/07 11:08:11;;;;;;;11.30;2.10;;;;;;;;;;5087317;27;20028;-61
2021/04/07 11:10:40;;;;;;;21.35;1.90;;;;;;;;;;5055863;27;20047;-60
2021/04/07 11:13:06;;;;;;;5.43;1.25;;;;;;;;;;5087651;27;20036;-59
2021/04/07 11:15:31;;;;;;;9.45;1.48;;;;;;;;;;5066955;27;20054;-60
2021/04/07 11:18:01;;;;;;;8.68;1.73;;;;;;;;;;5087086;27;20030;-61
2021/04/07 11:20:31;;;;;;;6.57;1.27;;;;;;;;;;5082730;27;20023;-60
2021/04/07 11:22:58;;;;;;;9.43;1.20;;;;;;;;;;5086897;27;20092;-61
2021/04/07 11:25:24;;;;;;;3.83;0.90;;;;;;;;;;5032182;27;20059;-59
2021/04/07 11:27:53;;;;;;;9.43;0.82;;;;;;;;;;5068823;27;20030;-60
2021/04/07 11:30:19;;;;;;;5.95;0.90;;;;;;;;;;5055332;27;20043;-61
2021/04/07 11:32:54;;;;;;;6.15;0.82;;;;;;;;;;5085212;27;20050;-60
2021/04/07 11:35:25;;;;;;;;;;;;;;;;;;5073961;27;20019;-62
2021/04/07 11:38:01;;;;;;;10.52;1.35;;;;;;;;;;5087633;27;20007;-60
2021/04/07 11:43:18;;;;;;;12.88;2.30;;;;;;;;;;5070745;27;20505;-60
2021/04/07 11:45:44;;;;;;;15.57;1.65;;;;;;;;;;5087021;27;20055;-63
2021/04/07 11:48:10;;;;;;;16.45;1.40;;;;;;;;;;5068313;27;20057;-59
2021/04/07 11:50:36;;;;;;;19.60;2.53;;;;;;;;;;5054468;27;20051;-60
2021/04/07 11:53:01;;;;;;;15.20;1.80;;;;;;;;;;5066582;28;20024;-66
2021/04/07 11:55:29;;;;;;;17.70;1.98;;;;;;;;;;5079114;27;20148;-62
2021/04/07 11:57:55;;;;;;;10.07;1.25;;;;;;;;;;5086357;27;20027;-64
2021/04/07 12:00:21;;;;;;;7.25;1.25;;;;;;;;;;5068288;27;20020;-62
2021/04/07 12:02:47;;;;;;;6.95;1.48;;;;;;;;;;5086946;27;20077;-61
2021/04/07 12:05:16;;;;;;;5.18;1.35;;;;;;;;;;5052624;27;20072;-61
2021/04/07 12:07:43;;;;;;;9.23;1.55;;;;;;;;;;5053178;27;20038;-67
2021/04/07 12:10:13;;;;;;;4.57;1.10;;;;;;;;;;5084221;27;20060;-60
2021/04/07 12:12:44;;;;;;;14.57;1.33;;;;;;;;;;5067227;27;20039;-62
2021/04/07 12:15:10;;;;;;;6.72;1.58;;;;;;;;;;5085869;27;20109;-62
2021/04/07 12:17:35;;;;;;;10.07;1.80;;;;;;;;;;5054369;28;20428;-60
2021/04/07 12:20:03;;;;;;;14.15;1.95;;;;;;;;;;5052698;27;20660;-60
2021/04/07 12:22:33;;;;;;;16.67;1.50;;;;;;;;;;5069727;27;20047;-60
2021/04/07 12:24:58;;;;;;;7.68;1.60;;;;;;;;;;5047396;27;20040;-60
2021/04/07 12:27:24;;;;;;;7.47;1.48;;;;;;;;;;5081034;27;20494;-61
2021/04/07 12:29:52;;;;;;;8.27;1.30;;;;;;;;;;5068389;27;20036;-64
2021/04/07 12:32:18;;;;;;;12.40;1.60;;;;;;;;;;5067828;27;20568;-60
2021/04/07 12:34:44;;;;;;;9.85;1.65;;;;;;;;;;5054895;27;20035;-60
2021/04/07 12:37:11;;;;;;;6.97;1.05;;;;;;;;;;5067993;27;20046;-65
2021/04/07 12:39:39;;;;;;;13.27;1.60;;;;;;;;;;5067651;27;20034;-60
2021/04/07 12:42:10;;;;;;;11.60;1.75;;;;;;;;;;5084930;27;20044;-61
2021/04/07 12:44:35;;;;;;;5.25;1.15;;;;;;;;;;5068771;27;20032;-60
2021/04/07 12:47:03;;;;;;;4.75;0.98;;;;;;;;;;5086077;27;20059;-61
2021/04/07 12:49:31;;;;;;;8.50;1.08;;;;;;;;;;5071601;27;20057;-62
2021/04/07 12:51:57;;;;;;;9.27;1.30;;;;;;;;;;5068713;28;20052;-62
2021/04/07 12:54:22;;;;;;;6.28;0.93;;;;;;;;;;5085553;27;20039;-62
2021/04/07 12:56:50;;;;;;;8.38;1.20;;;;;;;;;;5069855;27;20034;-60
2021/04/07 12:59:18;;;;;;;5.90;1.30;;;;;;;;;;5050007;28;20027;-61
2021/04/07 13:01:44;;;;;;;7.22;1.48;;;;;;;;;;5083498;27;20032;-61
2021/04/07 13:04:10;;;;;;;6.10;1.10;;;;;;;;;;5065988;27;20046;-60
2021/04/07 13:06:35;;;;;;;9.10;2.28;;;;;;;;;;5078138;27;20022;-61
2021/04/07 13:09:01;;;;;;;6.35;1.00;;;;;;;;;;5067316;27;20036;-62
2021/04/07 13:11:29;;;;;;;11.43;1.15;;;;;;;;;;5050223;27;20032;-65
2021/04/07 13:13:57;;;;;;;6.18;0.80;;;;;;;;;;5068944;27;20032;-61
2021/04/07 13:16:25;;;;;;;8.55;1.20;;;;;;;;;;5066240;27;20403;-64
2021/04/07 13:18:51;;;;;;;12.93;0.98;;;;;;;;;;5060732;27;20028;-60
2021/04/07 13:21:17;;;;;;;6.50;1.30;;;;;;;;;;5041913;27;20032;-65
2021/04/07 13:23:44;;;;;;;7.07;1.23;;;;;;;;;;5085432;27;20161;-63
2021/04/07 13:26:15;;;;;;;9.20;1.30;;;;;;;;;;5084644;27;20583;-61
2021/04/07 13:28:43;;;;;;;10.88;1.75;;;;;;;;;;5076538;28;20040;-61
2021/04/07 13:31:10;;;;;;;9.05;1.33;;;;;;;;;;5086829;27;20115;-60
2021/04/07 13:34:23;;;;;;;7.72;1.35;;;;;;;;;;5067630;27;20028;-60
2021/04/07 13:43:55;;;;;;;9.65;1.45;;;;;;;;;;5084843;27;20095;-60
2021/04/07 13:46:23;;;;;;;6.43;1.33;;;;;;;;;;5084139;27;20574;-64
2021/04/07 13:48:49;;;;;;;12.23;1.67;;;;;;;;;;5068098;28;20035;-60
2021/04/07 13:51:16;;;;;;;10.38;1.40;;;;;;;;;;5052540;27;20060;-61
2021/04/07 13:53:46;;;;;;;14.77;1.88;;;;;;;;;;5072476;27;20034;-60
2021/04/07 13:56:20;;;;;;;7.45;1.23;;;;;;;;;;5070524;28;22018;-59
2021/04/07 13:58:48;;;;;;;9.88;1.70;;;;;;;;;;5086736;27;20037;-63
2021/04/07 14:01:16;;;;;;;16.10;2.30;;;;;;;;;;5061533;28;20499;-60
2021/04/07 14:03:41;;;;;;;9.85;1.60;;;;;;;;;;5066845;27;20042;-60
2021/04/07 14:06:11;;;;;;;12.43;1.90;;;;;;;;;;5084805;27;20163;-60
2021/04/07 14:08:36;;;;;;;14.65;1.63;;;;;;;;;;5054932;27;20043;-60
2021/04/07 14:11:02;;;;;;;11.80;1.83;;;;;;;;;;5088529;27;20037;-60
2021/04/07 14:13:27;;;;;;;13.02;2.20;;;;;;;;;;5083880;27;20147;-60
2021/04/07 14:15:53;;;;;;;9.25;2.20;;;;;;;;;;5069099;28;20934;-61
2021/04/07 14:18:21;;;;;;;12.18;1.33;;;;;;;;;;5084527;27;20032;-59
2021/04/07 14:20:46;;;;;;;12.25;1.40;;;;;;;;;;5060951;27;20580;-60
2021/04/07 14:23:14;;;;;;;9.35;1.77;;;;;;;;;;5085163;27;20042;-67
2021/04/07 14:25:40;;;;;;;6.93;1.10;;;;;;;;;;5033559;28;20196;-61
2021/04/07 14:28:05;;;;;;;5.03;1.02;;;;;;;;;;5070370;27;20915;-60
2021/04/07 14:30:43;;;;;;;15.60;1.50;;;;;;;;;;5085526;28;20401;-61
2021/04/07 14:33:13;;;;;;;7.88;1.90;;;;;;;;;;5063876;28;20043;-60
2021/04/07 14:35:38;;;;;;;12.55;1.65;;;;;;;;;;5070404;28;20028;-60
2021/04/07 14:38:07;;;;;;;17.20;2.30;;;;;;;;;;5085415;27;20046;-59
2021/04/07 14:40:36;;;;;;;11.52;1.42;;;;;;;;;;5068976;28;20387;-60
2021/04/07 14:43:01;;;;;;;11.43;1.25;;;;;;;;;;5068424;28;20659;-59
2021/04/07 14:45:27;;;;;;;8.68;1.70;;;;;;;;;;5067441;28;20039;-60
2021/04/07 14:47:53;;;;;;;16.13;1.77;;;;;;;;;;5068644;28;20152;-60
2021/04/07 14:51:04;;;;;;;12.38;1.33;;;;;;;;;;5087136;28;20529;-59
2021/04/07 14:53:16;;;;;;;10.95;1.92;;;;;;;;;;5082158;28;20139;-61
2021/04/07 14:55:42;;;;;;;15.43;1.95;;;;;;;;;;5067642;28;20027;-60